createdAt,value
2022-11-24T00:04:57.954Z,5.32
2022-11-24T00:15:06.667Z,5.21
2022-11-24T00:25:16.032Z,4.27
2022-11-24T00:35:24.665Z,4.41
2022-11-24T00:45:33.302Z,4.84
2022-11-24T00:55:41.866Z,5.12
2022-11-24T01:05:50.498Z,5.65
2022-11-24T01:15:59.165Z,5.74
2022-11-24T01:26:07.676Z,5.32
2022-11-24T01:36:16.420Z,5.79
2022-11-24T01:46:25.027Z,6.31
2022-11-24T01:56:33.461Z,6.43
2022-11-24T02:06:42.081Z,5.7
2022-11-24T02:16:50.526Z,5.34
2022-11-24T02:26:59.185Z,4.94
2022-11-24T02:37:07.868Z,4.41
2022-11-24T02:47:16.536Z,4.06
2022-11-24T02:57:25.152Z,3.27
2022-11-24T03:07:34.034Z,2.52
2022-11-24T03:17:42.723Z,2.5
2022-11-24T03:27:51.274Z,3.3
2022-11-24T03:37:59.798Z,4.06
2022-11-24T03:48:09.584Z,3.71
2022-11-24T03:58:20.825Z,3.43
2022-11-24T04:08:19.623Z,3.98
2022-11-24T04:18:28.318Z,2.66
2022-11-24T04:28:38.152Z,2.18
2022-11-24T04:39:20.434Z,3.44
2022-11-24T04:48:56.115Z,4.18
2022-11-24T04:59:08.124Z,3.58
2022-11-24T05:09:11.847Z,3.52
2022-11-24T05:19:20.204Z,3.3
2022-11-24T05:29:28.210Z,2.9
2022-11-24T05:39:36.289Z,3.91
2022-11-24T05:49:44.422Z,5.36
2022-11-24T05:59:52.508Z,6.09
2022-11-24T06:10:00.559Z,4.76
2022-11-24T06:20:08.738Z,5.04
2022-11-24T06:30:16.858Z,5.44
2022-11-24T06:40:25.367Z,4.51
2022-11-24T06:50:33.794Z,5.93
2022-11-24T07:00:42.133Z,4.94
2022-11-24T07:10:50.554Z,5.77
2022-11-24T07:21:00.484Z,7.85
2022-11-24T07:31:15.303Z,7.2
2022-11-24T07:42:00.904Z,6.15
2022-11-24T07:51:56.735Z,6
2022-11-24T08:01:38.065Z,7.58
2022-11-24T08:11:36.740Z,8.5
2022-11-24T08:21:33.918Z,7.52
2022-11-24T08:31:42.230Z,7.19
2022-11-24T08:41:51.411Z,5.71
2022-11-24T08:51:59.653Z,12.64
2022-11-24T09:02:07.797Z,12.05
2022-11-24T09:12:15.429Z,13.74
2022-11-24T09:22:23.661Z,9.45
2022-11-24T09:32:32.201Z,4.36
2022-11-24T09:42:40.478Z,5.08
2022-11-24T09:52:48.587Z,5.94
2022-11-24T10:02:56.708Z,8.87
2022-11-24T10:13:04.835Z,10.23
2022-11-24T10:23:13.178Z,9.66
2022-11-24T10:33:23.223Z,8.45
2022-11-24T10:43:29.356Z,6.84
2022-11-24T10:53:38.728Z,6.19
2022-11-24T11:03:46.448Z,8.54
2022-11-24T11:13:58.440Z,5.94
2022-11-24T11:24:02.341Z,6.01
2022-11-24T11:34:15.950Z,5.57
2022-11-24T11:44:18.714Z,4.95
2022-11-24T11:54:26.949Z,5.1
2022-11-24T12:04:35.425Z,4.67
2022-11-24T12:14:41.831Z,5.01
2022-11-24T12:24:51.054Z,5.49
2022-11-24T12:34:59.423Z,5.36
2022-11-24T12:45:07.740Z,6.44
2022-11-24T12:55:16.097Z,5.45
2022-11-24T13:05:24.605Z,6.27
2022-11-24T13:15:45.447Z,4.77
2022-11-24T13:25:39.641Z,3.85
2022-11-24T13:35:47.915Z,3.94
2022-11-24T13:45:56.239Z,4.89
2022-11-24T13:56:04.522Z,4.18
2022-11-24T14:06:16.432Z,3.38
2022-11-24T14:16:14.881Z,1.93
2022-11-24T14:26:23.022Z,2.16
2022-11-24T14:36:33.964Z,1.8
2022-11-24T14:46:32.152Z,2.23
2022-11-24T14:56:40.167Z,2.11
2022-11-24T15:06:53.364Z,2.15
2022-11-24T15:16:55.266Z,1.87
2022-11-24T15:26:52.856Z,2.02
2022-11-24T15:37:03.200Z,1.91
2022-11-24T15:47:01.375Z,1.68
2022-11-24T15:57:12.692Z,1.69
2022-11-24T16:07:15.773Z,1.46
2022-11-24T16:17:14.979Z,1.65
2022-11-24T16:27:27.905Z,1.69
2022-11-24T16:37:27.923Z,1.64
2022-11-24T16:47:29.103Z,1.74
2022-11-24T16:57:27.950Z,2.49
2022-11-24T17:07:36.275Z,1.79
2022-11-24T17:18:01.573Z,1.65
2022-11-24T17:27:52.889Z,1.86
2022-11-24T17:38:07.169Z,2.07
2022-11-24T17:48:11.849Z,3
2022-11-24T17:58:18.190Z,2.51
2022-11-24T18:08:17.618Z,4.33
2022-11-24T18:18:25.868Z,3.62
2022-11-24T18:28:35.000Z,3.19
2022-11-24T18:38:43.039Z,3.35
2022-11-24T18:48:51.093Z,2.74
2022-11-24T18:58:59.046Z,3.67
2022-11-24T19:09:07.021Z,3.76
2022-11-24T19:19:23.871Z,4.13
2022-11-24T19:29:29.767Z,3.43
2022-11-24T19:39:45.676Z,19.05
2022-11-24T19:49:36.068Z,12.26
2022-11-24T19:59:36.037Z,5.8
2022-11-24T20:09:45.968Z,3.68
2022-11-24T20:19:44.247Z,10.99
2022-11-24T20:29:53.476Z,5.7
2022-11-24T20:40:08.043Z,3.09
2022-11-24T20:50:11.405Z,4.82
2022-11-24T21:00:09.648Z,5.19
2022-11-24T21:10:17.692Z,4.26
2022-11-24T21:20:28.382Z,5.37
2022-11-24T21:30:27.086Z,6.44
2022-11-24T21:40:37.413Z,6.69
2022-11-24T21:50:43.773Z,5.41
2022-11-24T22:00:42.435Z,5.92
2022-11-24T22:10:50.575Z,7.38
2022-11-24T22:20:58.955Z,6.26
2022-11-24T22:31:08.079Z,6.11
2022-11-24T22:41:16.125Z,5.91
2022-11-24T22:51:27.230Z,5.68
2022-11-24T23:01:25.569Z,5.69
2022-11-24T23:11:38.176Z,5.65
2022-11-24T23:21:34.768Z,5.62
2022-11-24T23:31:44.193Z,6.09
2022-11-24T23:41:53.934Z,6.48
2022-11-24T23:52:02.104Z,6.06
